Time;durP1;ratioP1;P1;durP2;ratioP2;P2;SDS_P1;SDS_P2;PMS_P1;PMS_P2;Temp;Humidity;BMP_temperature;BMP_pressure;BME280_temperature;BME280_humidity;BME280_pressure;Samples;Min_cycle;Max_cycle;Signal;HPM_P1;HPM_P2
2022/05/17 00:01:54;;;;;;;16.38;7.15;;;12.70;99.90;;;;;;5079100;28;20025;-81
2022/05/17 00:04:20;;;;;;;11.57;6.25;;;12.70;99.90;;;;;;5078865;28;20077;-80
2022/05/17 00:06:46;;;;;;;18.80;6.13;;;12.70;99.90;;;;;;5078858;28;20025;-81
2022/05/17 00:09:12;;;;;;;16.17;6.55;;;12.60;99.90;;;;;;5078879;28;20017;-81
2022/05/17 00:11:37;;;;;;;20.77;7.25;;;12.30;99.90;;;;;;5078908;28;20029;-81
2022/05/17 00:14:04;;;;;;;15.10;6.18;;;12.20;99.90;;;;;;5078829;28;20025;-80
2022/05/17 00:16:30;;;;;;;21.20;7.97;;;12.10;99.90;;;;;;5078663;28;20072;-81
2022/05/17 00:18:56;;;;;;;14.48;6.97;;;11.90;99.90;;;;;;5061107;28;20021;-81
2022/05/17 00:21:21;;;;;;;18.83;8.27;;;11.90;99.90;;;;;;5078774;28;20032;-81
2022/05/17 00:23:47;;;;;;;20.20;7.70;;;11.80;99.90;;;;;;5077192;28;20048;-81
2022/05/17 00:26:12;;;;;;;15.50;6.65;;;11.80;99.90;;;;;;5078648;28;20021;-80
2022/05/17 00:28:39;;;;;;;17.08;7.05;;;11.70;99.90;;;;;;5078764;28;20044;-80
2022/05/17 00:31:06;;;;;;;14.15;7.22;;;11.60;99.90;;;;;;5078251;28;20072;-80
2022/05/17 00:33:32;;;;;;;12.75;7.30;;;11.60;99.90;;;;;;5078353;28;20215;-80
2022/05/17 00:35:58;;;;;;;17.27;6.88;;;11.60;99.90;;;;;;5077999;28;20021;-80
2022/05/17 00:38:24;;;;;;;18.63;7.78;;;11.50;99.90;;;;;;5077924;28;20036;-80
2022/05/17 00:40:50;;;;;;;16.88;6.88;;;11.40;99.90;;;;;;5078029;28;20021;-80
2022/05/17 00:44:42;;;;;;;18.60;7.20;;;11.40;99.90;;;;;;5077095;28;20041;-80
2022/05/17 00:46:17;;;;;;;15.60;6.68;;;11.40;99.90;;;;;;5073143;28;20029;-80
2022/05/17 00:48:43;;;;;;;23.88;8.00;;;11.30;99.90;;;;;;5077321;28;20092;-80
2022/05/17 00:51:09;;;;;;;16.08;6.97;;;11.30;99.90;;;;;;5076602;28;20017;-80
2022/05/17 00:53:36;;;;;;;17.95;7.30;;;11.30;99.90;;;;;;5078026;28;20021;-81
2022/05/17 00:56:12;;;;;;;16.38;7.15;;;11.30;99.90;;;;;;5078174;28;20025;-80
2022/05/17 00:58:44;;;;;;;17.75;7.38;;;11.20;99.90;;;;;;5078218;28;20005;-80
2022/05/17 01:01:17;;;;;;;18.58;7.25;;;11.10;99.90;;;;;;5077810;28;20021;-81
2022/05/17 01:03:49;;;;;;;16.95;6.40;;;11.20;99.90;;;;;;5062406;28;20040;-80
2022/05/17 01:06:16;;;;;;;18.00;7.03;;;11.00;99.90;;;;;;5057884;28;20033;-81
2022/05/17 01:08:42;;;;;;;15.43;7.60;;;11.00;99.90;;;;;;5057891;28;20077;-81
2022/05/17 01:11:07;;;;;;;15.95;6.97;;;11.00;99.90;;;;;;5056978;28;20036;-80
2022/05/17 01:16:18;;;;;;;18.88;6.97;;;11.00;99.90;;;;;;5065347;28;20040;-81
2022/05/17 01:18:43;;;;;;;17.52;6.80;;;11.00;99.90;;;;;;5077391;28;20036;-81
2022/05/17 01:21:10;;;;;;;16.23;7.03;;;11.00;99.90;;;;;;5077254;28;20025;-80
2022/05/17 01:23:36;;;;;;;14.77;6.18;;;10.90;99.90;;;;;;5075162;28;20063;-81
2022/05/17 01:26:03;;;;;;;19.42;6.72;;;10.90;99.90;;;;;;5077046;28;20024;-81
2022/05/17 01:28:33;;;;;;;18.40;6.47;;;10.80;99.90;;;;;;5077043;28;20009;-80
2022/05/17 01:31:04;;;;;;;;;;;10.90;99.90;;;;;;5077712;28;20009;-80
2022/05/17 01:33:32;;;;;;;16.27;6.50;;;10.90;99.90;;;;;;5077023;28;19908;-81
2022/05/17 01:35:58;;;;;;;15.50;5.82;;;10.80;99.90;;;;;;5076148;28;20020;-80
2022/05/17 01:38:24;;;;;;;15.35;6.20;;;10.70;99.90;;;;;;5061649;28;20033;-80
2022/05/17 01:40:49;;;;;;;17.45;5.82;;;10.60;99.90;;;;;;5056436;28;20024;-81
2022/05/17 01:43:15;;;;;;;16.80;6.90;;;10.60;99.90;;;;;;5055316;28;20225;-80
2022/05/17 01:45:40;;;;;;;13.48;6.15;;;10.60;99.90;;;;;;5054380;28;20052;-79
2022/05/17 01:48:06;;;;;;;15.20;5.95;;;10.50;99.90;;;;;;5063858;28;20021;-80
2022/05/17 01:50:32;;;;;;;14.30;5.80;;;10.60;99.90;;;;;;5076009;28;20028;-80
2022/05/17 01:52:57;;;;;;;16.10;6.38;;;10.50;99.90;;;;;;5076245;28;20017;-80
2022/05/17 01:55:23;;;;;;;16.23;6.82;;;10.60;99.90;;;;;;5076088;28;20035;-80
2022/05/17 01:57:48;;;;;;;14.73;6.32;;;10.50;99.90;;;;;;5067655;28;20017;-80
2022/05/17 02:00:16;;;;;;;16.60;6.00;;;10.70;99.90;;;;;;5056566;28;20028;-80
2022/05/17 02:02:41;;;;;;;18.92;6.45;;;10.40;99.90;;;;;;5063211;28;20032;-80
2022/05/17 02:05:08;;;;;;;18.70;7.05;;;10.40;99.90;;;;;;5073844;28;20025;-80
2022/05/17 02:07:34;;;;;;;16.30;6.43;;;10.50;99.90;;;;;;5056126;28;20036;-80
2022/05/17 02:09:59;;;;;;;17.38;6.88;;;10.60;1.00;;;;;;5072067;28;20025;-79
2022/05/17 02:12:25;;;;;;;13.57;5.93;;;10.50;1.00;;;;;;5063687;28;20034;-80
2022/05/17 02:14:52;;;;;;;12.20;5.85;;;10.40;1.00;;;;;;5069988;28;20005;-80
2022/05/17 02:17:18;;;;;;;18.42;7.35;;;10.30;1.00;;;;;;5058147;28;20032;-80
2022/05/17 02:19:43;;;;;;;13.30;5.35;;;10.30;1.00;;;;;;5058180;28;20029;-80
2022/05/17 02:22:10;;;;;;;17.17;6.45;;;10.20;1.00;;;;;;5076024;28;20014;-80
2022/05/17 02:24:35;;;;;;;15.70;6.50;;;10.10;1.00;;;;;;5073836;28;20045;-80
2022/05/17 02:27:01;;;;;;;17.85;6.03;;;10.10;1.00;;;;;;5074471;28;20032;-80
2022/05/17 02:29:29;;;;;;;16.58;7.00;;;10.10;1.00;;;;;;5063973;28;20033;-80
2022/05/17 02:31:54;;;;;;;14.77;6.25;;;10.40;1.00;;;;;;5055916;28;20338;-80
2022/05/17 02:34:20;;;;;;;15.50;6.28;;;10.30;1.00;;;;;;5054438;28;20044;-80
2022/05/17 02:36:45;;;;;;;14.38;6.20;;;10.30;4.30;;;;;;5053262;28;20108;-80
2022/05/17 02:39:12;;;;;;;15.07;6.05;;;10.20;55.20;;;;;;5054628;28;20074;-80
2022/05/17 02:41:37;;;;;;;14.65;6.07;;;10.10;79.40;;;;;;5055491;28;20025;-79
2022/05/17 02:44:03;;;;;;;12.82;5.55;;;10.10;93.30;;;;;;5055012;28;20042;-79
2022/05/17 02:46:31;;;;;;;13.77;6.22;;;10.00;99.30;;;;;;5066486;28;20088;-79
2022/05/17 02:48:56;;;;;;;13.18;5.63;;;10.10;99.90;;;;;;5075160;28;20079;-80
2022/05/17 02:51:22;;;;;;;13.45;6.47;;;10.10;99.90;;;;;;5075011;28;20017;-80
2022/05/17 02:53:47;;;;;;;15.15;5.82;;;9.90;99.90;;;;;;5075888;28;20076;-80
2022/05/17 02:56:14;;;;;;;15.52;5.88;;;10.10;99.90;;;;;;5076007;28;20037;-80
2022/05/17 02:58:39;;;;;;;14.02;5.60;;;10.20;99.90;;;;;;5076053;28;20017;-80
2022/05/17 03:01:06;;;;;;;15.38;6.35;;;10.20;99.90;;;;;;5075862;28;20028;-80
2022/05/17 03:03:31;;;;;;;18.45;6.13;;;10.20;99.90;;;;;;5075553;28;20076;-80
2022/05/17 03:05:57;;;;;;;18.50;6.50;;;10.20;99.90;;;;;;5075575;28;20036;-79
2022/05/17 03:08:23;;;;;;;13.82;5.75;;;10.30;99.90;;;;;;5075636;28;20025;-80
2022/05/17 03:10:49;;;;;;;13.27;5.60;;;10.10;99.90;;;;;;5075444;28;20014;-80
2022/05/17 03:13:15;;;;;;;10.82;5.53;;;10.30;99.90;;;;;;5057685;28;20037;-79
2022/05/17 03:15:42;;;;;;;11.60;5.20;;;10.30;99.90;;;;;;5057559;28;20022;-80
2022/05/17 03:18:07;;;;;;;11.80;4.78;;;10.20;99.90;;;;;;5058957;28;20037;-79
2022/05/17 03:20:33;;;;;;;14.05;5.38;;;10.10;99.90;;;;;;5059001;28;20030;-80
2022/05/17 03:22:59;;;;;;;11.85;5.82;;;10.10;99.90;;;;;;5059085;28;20088;-80
2022/05/17 03:25:24;;;;;;;14.50;5.22;;;10.10;99.90;;;;;;5057151;28;20037;-80
2022/05/17 03:27:51;;;;;;;12.32;5.82;;;10.20;99.90;;;;;;5058850;28;20017;-80
2022/05/17 03:30:16;;;;;;;14.30;5.45;;;10.40;99.90;;;;;;5059040;28;20036;-80
2022/05/17 03:32:43;;;;;;;14.25;4.93;;;10.40;99.90;;;;;;5059297;28;20014;-80
2022/05/17 03:35:09;;;;;;;17.95;5.10;;;10.30;99.90;;;;;;5059345;28;20077;-80
2022/05/17 03:37:35;;;;;;;13.77;5.00;;;10.30;99.90;;;;;;5059430;28;20026;-80
2022/05/17 03:40:01;;;;;;;12.52;4.20;;;10.30;99.90;;;;;;5059154;28;20021;-80
2022/05/17 03:42:27;;;;;;;14.45;5.20;;;10.40;99.90;;;;;;5058743;28;20037;-80
2022/05/17 03:44:53;;;;;;;13.82;4.90;;;10.50;99.90;;;;;;5058242;28;20051;-80
2022/05/17 03:47:19;;;;;;;15.40;4.50;;;10.60;99.90;;;;;;5075219;28;20025;-80
2022/05/17 03:49:45;;;;;;;18.88;4.72;;;10.60;99.90;;;;;;5078829;28;20032;-80
2022/05/17 03:52:10;;;;;;;16.85;5.35;;;10.60;99.90;;;;;;5079277;28;20017;-80
2022/05/17 03:54:37;;;;;;;14.95;4.75;;;10.90;99.90;;;;;;5079330;28;20036;-80
2022/05/17 03:57:04;;;;;;;12.82;4.82;;;11.10;99.90;;;;;;5078962;28;20021;-80
2022/05/17 03:59:30;;;;;;;13.40;4.70;;;11.20;99.90;;;;;;5078097;28;20056;-79
2022/05/17 04:01:55;;;;;;;17.98;4.90;;;11.40;99.90;;;;;;5077885;28;20028;-80
2022/05/17 04:04:21;;;;;;;23.00;6.43;;;11.50;99.90;;;;;;5077256;28;20036;-80
2022/05/17 04:06:47;;;;;;;15.68;4.85;;;11.70;99.90;;;;;;5067500;28;20033;-80
2022/05/17 04:09:13;;;;;;;20.13;5.70;;;11.80;99.90;;;;;;5073873;28;20053;-80
2022/05/17 04:11:39;;;;;;;22.27;5.47;;;12.00;99.90;;;;;;5054433;28;20022;-80
2022/05/17 04:14:05;;;;;;;18.60;5.05;;;12.20;99.90;;;;;;5059198;28;20111;-80
2022/05/17 04:16:32;;;;;;;17.50;5.53;;;12.60;99.90;;;;;;5076089;28;20014;-80
2022/05/17 04:18:58;;;;;;;16.00;6.15;;;12.70;99.90;;;;;;5072468;28;20025;-80
2022/05/17 04:21:25;;;;;;;16.73;5.13;;;12.80;99.90;;;;;;5075782;28;20025;-81
2022/05/17 04:23:50;;;;;;;17.65;6.15;;;12.80;99.90;;;;;;5073314;28;20059;-80
2022/05/17 04:26:18;;;;;;;17.35;6.05;;;13.00;99.90;;;;;;5072023;28;20020;-80
2022/05/17 04:28:43;;;;;;;20.73;5.43;;;13.20;99.90;;;;;;5069019;28;20021;-80
2022/05/17 04:31:09;;;;;;;23.50;5.50;;;13.40;99.90;;;;;;5072805;28;20027;-80
2022/05/17 04:33:35;;;;;;;15.20;5.00;;;13.50;99.90;;;;;;5071451;28;20021;-81
2022/05/17 04:36:00;;;;;;;19.85;5.13;;;13.70;99.90;;;;;;5071903;28;20072;-81
2022/05/17 04:38:26;;;;;;;15.75;4.72;;;14.20;99.90;;;;;;5074257;28;20021;-81
2022/05/17 04:40:52;;;;;;;15.90;5.10;;;15.80;99.90;;;;;;5075332;28;20115;-81
2022/05/17 04:43:17;;;;;;;13.82;4.60;;;17.00;99.90;;;;;;5074828;28;20028;-81
2022/05/17 04:45:44;;;;;;;13.35;4.57;;;16.30;99.90;;;;;;5076978;28;20044;-81
2022/05/17 04:48:11;;;;;;;11.10;4.43;;;15.90;99.90;;;;;;5073996;28;20008;-81
2022/05/17 04:50:37;;;;;;;12.65;4.75;;;15.70;99.90;;;;;;5077129;28;20025;-81
2022/05/17 04:53:04;;;;;;;12.80;4.45;;;16.00;99.90;;;;;;5077653;28;20032;-81
2022/05/17 04:55:30;;;;;;;14.02;4.95;;;16.00;99.90;;;;;;5076666;28;20116;-81
2022/05/17 04:57:56;;;;;;;14.77;4.10;;;16.20;99.90;;;;;;5077197;28;20039;-81
2022/05/17 05:00:25;;;;;;;9.00;4.15;;;16.90;99.90;;;;;;5077385;28;20017;-81
2022/05/17 05:02:51;;;;;;;15.10;5.68;;;17.20;45.40;;;;;;5077316;28;20024;-81
2022/05/17 05:05:18;;;;;;;13.57;4.13;;;17.30;3.80;;;;;;5059907;28;20047;-81
2022/05/17 05:07:44;;;;;;;13.95;4.70;;;17.10;20.10;;;;;;5076957;28;20017;-81
2022/05/17 05:10:10;;;;;;;12.68;3.60;;;17.10;33.00;;;;;;5076640;28;20039;-81
2022/05/17 05:12:37;;;;;;;14.63;4.18;;;17.00;33.10;;;;;;5075850;28;20025;-81
2022/05/17 05:15:03;;;;;;;10.10;3.33;;;16.90;46.00;;;;;;5076670;28;20017;-81
2022/05/17 05:17:33;;;;;;;15.07;3.55;;;17.00;45.30;;;;;;5077035;28;20017;-81
2022/05/17 05:19:59;;;;;;;13.40;3.75;;;17.00;34.10;;;;;;5066408;28;20080;-82
2022/05/17 05:22:25;;;;;;;10.75;3.60;;;17.10;23.40;;;;;;5058162;28;20021;-81
2022/05/17 05:24:51;;;;;;;13.50;3.85;;;17.40;15.30;;;;;;5056475;28;20053;-81
2022/05/17 05:27:17;;;;;;;13.93;3.95;;;17.90;1.00;;;;;;5057617;28;20022;-81
2022/05/17 05:29:42;;;;;;;14.68;4.70;;;19.10;1.00;;;;;;5057732;28;20021;-81
2022/05/17 05:32:08;;;;;;;13.30;3.65;;;19.20;1.00;;;;;;5057182;28;20020;-82
2022/05/17 05:34:34;;;;;;;12.25;3.75;;;19.70;1.00;;;;;;5053406;28;20171;-81
2022/05/17 05:37:00;;;;;;;9.35;3.70;;;19.80;1.00;;;;;;5062725;28;20021;-81
2022/05/17 05:39:26;;;;;;;11.85;4.00;;;19.50;1.00;;;;;;5055333;28;20033;-81
2022/05/17 05:41:52;;;;;;;12.80;3.60;;;19.80;1.00;;;;;;5066748;28;20116;-81
2022/05/17 05:44:19;;;;;;;7.75;3.25;;;20.70;99.90;;;;;;5070709;28;20017;-81
2022/05/17 05:46:45;;;;;;;13.57;3.17;;;21.00;99.90;;;;;;5070087;28;20036;-81
2022/05/17 05:49:10;;;;;;;11.57;3.10;;;22.20;99.90;;;;;;5070852;28;20080;-81
2022/05/17 05:51:36;;;;;;;12.10;3.35;;;24.00;99.90;;;;;;5073013;28;20025;-82
2022/05/17 05:54:02;;;;;;;13.70;3.03;;;24.30;99.90;;;;;;5074803;28;20021;-82
2022/05/17 05:56:28;;;;;;;12.30;3.60;;;24.70;99.90;;;;;;5038169;28;20207;-81
2022/05/17 05:58:53;;;;;;;8.13;3.13;;;24.30;99.90;;;;;;5055607;28;20029;-81
2022/05/17 06:01:19;;;;;;;8.27;2.80;;;24.00;99.90;;;;;;5055270;28;20026;-82
2022/05/17 06:03:44;;;;;;;11.23;3.20;;;23.80;99.90;;;;;;5061155;28;20036;-82
2022/05/17 06:06:17;;;;;;;10.00;2.97;;;25.00;99.90;;;;;;5075034;28;20031;-82
2022/05/17 06:08:43;;;;;;;12.30;3.30;;;25.90;99.90;;;;;;5075909;28;20025;-82
2022/05/17 06:11:08;;;;;;;9.43;3.08;;;25.40;99.90;;;;;;5075222;28;20019;-82
2022/05/17 06:13:34;;;;;;;10.82;3.38;;;26.60;99.90;;;;;;5072343;28;20021;-82
2022/05/17 06:15:59;;;;;;;14.07;3.90;;;30.00;99.90;;;;;;5073567;28;20021;-82
2022/05/17 06:18:25;;;;;;;8.52;3.30;;;31.50;99.90;;;;;;5072418;28;20037;-82
2022/05/17 06:20:54;;;;;;;10.23;2.95;;;31.90;99.90;;;;;;5072224;28;20009;-82
2022/05/17 06:23:21;;;;;;;13.37;3.03;;;31.30;99.90;;;;;;5072385;28;20016;-82
2022/05/17 06:25:47;;;;;;;8.68;2.78;;;31.80;99.90;;;;;;5070088;28;20098;-82
2022/05/17 06:28:13;;;;;;;9.65;3.33;;;32.80;99.90;;;;;;5071308;28;20246;-82
2022/05/17 06:30:41;;;;;;;10.43;2.83;;;33.30;99.90;;;;;;5065401;28;20032;-82
2022/05/17 06:33:09;;;;;;;11.82;3.17;;;34.50;99.90;;;;;;5070959;28;20025;-82
2022/05/17 06:35:35;;;;;;;9.80;3.25;;;34.80;99.90;;;;;;5068795;28;20041;-83
2022/05/17 06:38:02;;;;;;;12.65;3.17;;;34.80;99.90;;;;;;5068910;28;20021;-83
2022/05/17 06:40:27;;;;;;;10.93;2.80;;;34.90;99.90;;;;;;5065545;28;20085;-82
2022/05/17 06:42:53;;;;;;;10.30;3.17;;;35.00;99.90;;;;;;5067660;28;20032;-82
2022/05/17 06:45:18;;;;;;;10.98;2.78;;;34.60;99.90;;;;;;5063793;28;21164;-82
2022/05/17 06:47:44;;;;;;;9.52;2.78;;;35.30;99.90;;;;;;5061146;28;20084;-82
2022/05/17 06:50:10;;;;;;;11.07;3.42;;;36.80;99.90;;;;;;5044243;28;20025;-82
2022/05/17 06:52:36;;;;;;;8.25;3.00;;;38.10;99.90;;;;;;5063129;28;20032;-83
2022/05/17 06:55:04;;;;;;;12.55;2.88;;;39.10;99.90;;;;;;5061486;28;20052;-83
2022/05/17 06:57:29;;;;;;;9.48;2.90;;;39.80;99.90;;;;;;5055979;28;20327;-83
2022/05/17 06:59:55;;;;;;;10.40;2.90;;;38.90;99.90;;;;;;5045394;28;20025;-83
2022/05/17 07:02:21;;;;;;;7.05;2.67;;;38.50;99.90;;;;;;5061358;28;20028;-83
2022/05/17 07:04:47;;;;;;;8.52;3.17;;;39.60;99.90;;;;;;5067385;28;20005;-82
2022/05/17 07:07:13;;;;;;;7.30;2.53;;;38.60;99.90;;;;;;5067564;28;20052;-83
2022/05/17 07:09:38;;;;;;;9.30;3.08;;;37.50;99.90;;;;;;5058640;28;20059;-83
2022/05/17 07:14:49;;;;;;;8.88;2.97;;;39.70;99.90;;;;;;5062510;28;20523;-83
2022/05/17 07:17:20;;;;;;;6.75;2.80;;;40.00;99.90;;;;;;5059873;28;20025;-83
2022/05/17 07:19:46;;;;;;;6.65;2.50;;;39.20;99.90;;;;;;5059344;28;20024;-82
2022/05/17 07:22:12;;;;;;;7.75;2.72;;;38.30;99.90;;;;;;5058792;28;20017;-82
2022/05/17 07:24:38;;;;;;;8.60;2.92;;;39.70;99.90;;;;;;5041109;28;20084;-83
2022/05/17 07:27:06;;;;;;;9.85;2.85;;;41.40;99.90;;;;;;5032213;28;20344;-83
2022/05/17 07:29:32;;;;;;;8.95;2.97;;;40.60;99.90;;;;;;5063014;28;20029;-83
2022/05/17 07:31:58;;;;;;;8.57;2.90;;;41.60;99.90;;;;;;5064397;28;20028;-83
2022/05/17 07:34:23;;;;;;;7.78;2.60;;;41.80;99.90;;;;;;5062219;28;20403;-83
2022/05/17 07:36:49;;;;;;;7.15;2.88;;;41.50;99.90;;;;;;5053236;28;20491;-83
2022/05/17 07:39:15;;;;;;;6.82;2.75;;;40.60;99.90;;;;;;5060444;28;20025;-83
2022/05/17 07:41:41;;;;;;;10.18;2.80;;;41.80;99.90;;;;;;5062288;28;20089;-83
2022/05/17 07:44:07;;;;;;;11.48;2.50;;;42.80;99.90;;;;;;5058678;28;20064;-83
2022/05/17 07:46:33;;;;;;;9.40;2.20;;;43.50;99.90;;;;;;5055982;28;20547;-83
2022/05/17 07:48:59;;;;;;;8.60;2.95;;;43.30;99.90;;;;;;5057458;28;20029;-83
2022/05/17 07:51:25;;;;;;;6.13;2.67;;;43.50;99.90;;;;;;5060643;28;20069;-82
2022/05/17 07:53:51;;;;;;;7.53;2.72;;;43.90;99.90;;;;;;5061489;28;20041;-83
2022/05/17 07:56:17;;;;;;;8.90;2.60;;;43.30;99.90;;;;;;5064964;28;20005;-83
2022/05/17 07:58:42;;;;;;;9.07;2.60;;;43.50;99.90;;;;;;5064923;28;20021;-83
2022/05/17 08:01:08;;;;;;;8.63;3.10;;;43.80;99.90;;;;;;5071242;28;20021;-83
2022/05/17 08:03:35;;;;;;;9.02;2.58;;;43.80;99.90;;;;;;5072378;28;20029;-83
2022/05/17 08:06:01;;;;;;;7.95;2.58;;;42.80;99.90;;;;;;5070267;28;20067;-83
2022/05/17 08:08:27;;;;;;;7.05;2.47;;;43.90;99.90;;;;;;5075992;28;20016;-84
2022/05/17 08:10:53;;;;;;;6.95;2.42;;;43.30;99.90;;;;;;5076954;28;20029;-84
2022/05/17 08:13:20;;;;;;;5.95;2.70;;;42.40;99.90;;;;;;5072371;28;20029;-84
2022/05/17 08:15:45;;;;;;;6.90;2.55;;;41.90;99.90;;;;;;5067916;28;20040;-84
2022/05/17 08:18:12;;;;;;;6.85;2.25;;;41.30;99.90;;;;;;5048096;28;20029;-83
2022/05/17 08:20:37;;;;;;;11.75;2.88;;;41.00;99.90;;;;;;5070303;28;20033;-83
2022/05/17 08:23:05;;;;;;;9.68;2.90;;;39.80;99.90;;;;;;5074162;28;20079;-83
2022/05/17 08:28:28;;;;;;;9.27;2.95;;;37.10;99.90;;;;;;5077759;28;20074;-82
2022/05/17 08:30:53;;;;;;;8.63;2.53;;;36.20;99.90;;;;;;5077812;28;20017;-84
2022/05/17 08:33:20;;;;;;;10.98;2.50;;;36.80;99.90;;;;;;5076777;28;20039;-83
2022/05/17 08:36:00;;;;;;;8.27;2.67;;;39.90;99.90;;;;;;5070560;28;20021;-83
2022/05/17 08:38:42;;;;;;;9.23;2.55;;;40.00;99.90;;;;;;5066674;28;20032;-83
2022/05/17 08:41:28;;;;;;;8.13;2.45;;;40.20;99.90;;;;;;5072371;28;20067;-83
2022/05/17 08:44:01;;;;;;;5.13;2.50;;;42.10;99.90;;;;;;5072107;28;20017;-82
2022/05/17 08:46:44;;;;;;;10.73;2.40;;;41.00;99.90;;;;;;5068077;28;20040;-82
2022/05/17 08:49:21;;;;;;;10.32;3.17;;;40.60;99.90;;;;;;5066870;28;20036;-82
2022/05/17 08:51:52;;;;;;;8.73;3.03;;;41.50;99.90;;;;;;5072343;28;20029;-82
2022/05/17 08:54:25;;;;;;;6.82;2.50;;;43.20;99.90;;;;;;5071460;28;20036;-82
2022/05/17 08:56:59;;;;;;;8.85;2.60;;;42.70;99.90;;;;;;5060205;28;20113;-82
2022/05/17 08:59:24;;;;;;;8.90;2.53;;;42.50;99.90;;;;;;5041004;28;20021;-82
2022/05/17 09:02:00;;;;;;;7.10;2.45;;;44.70;99.90;;;;;;5058093;28;20441;-82
2022/05/17 09:04:47;;;;;;;8.80;2.47;;;44.90;99.90;;;;;;5056200;28;20468;-82
2022/05/17 09:07:55;;;;;;;8.00;2.35;;;43.70;99.90;;;;;;5056766;28;20056;-83
2022/05/17 09:10:50;;;;;;;8.52;2.35;;;43.30;99.90;;;;;;5057704;28;20095;-82
2022/05/17 09:13:22;;;;;;;7.68;1.98;;;42.80;99.90;;;;;;5057189;28;20594;-82
2022/05/17 09:15:51;;;;;;;7.82;2.00;;;43.60;99.90;;;;;;5041637;28;20028;-82
2022/05/17 09:18:18;;;;;;;8.13;2.20;;;44.30;99.90;;;;;;5058955;28;20017;-82
2022/05/17 09:20:44;;;;;;;8.77;2.40;;;44.90;99.90;;;;;;5050696;28;20746;-81
2022/05/17 09:23:10;;;;;;;7.25;1.88;;;45.50;99.90;;;;;;5042479;28;20033;-81
2022/05/17 09:25:57;;;;;;;5.72;1.95;;;44.70;99.90;;;;;;5038934;28;20548;-82
2022/05/17 09:28:29;;;;;;;6.60;1.90;;;43.70;99.90;;;;;;5039102;28;20036;-82
2022/05/17 09:31:15;;;;;;;10.82;2.17;;;43.70;99.90;;;;;;5040938;28;20094;-82
2022/05/17 09:33:41;;;;;;;5.43;1.80;;;44.70;99.90;;;;;;5052936;28;20044;-82
2022/05/17 09:36:13;;;;;;;6.15;1.88;;;44.90;99.90;;;;;;5056294;28;20520;-82
2022/05/17 09:38:48;;;;;;;9.25;2.13;;;45.50;99.90;;;;;;5056989;28;20096;-82
2022/05/17 09:41:17;;;;;;;9.00;2.05;;;44.50;99.90;;;;;;5058425;28;20059;-82
2022/05/17 09:43:50;;;;;;;7.18;1.95;;;44.30;99.90;;;;;;5056895;28;20041;-82
2022/05/17 09:46:26;;;;;;;6.30;1.90;;;43.50;99.90;;;;;;5055143;28;20052;-82
2022/05/17 09:54:48;;;;;;;6.97;2.45;;;43.30;99.90;;;;;;5038863;28;20056;-82
2022/05/17 09:57:31;;;;;;;5.07;1.70;;;44.50;99.90;;;;;;5052974;28;20103;-82
2022/05/17 10:00:12;;;;;;;4.95;1.60;;;44.50;99.90;;;;;;5058873;28;20101;-82
2022/05/17 10:02:40;;;;;;;3.55;1.63;;;44.20;99.90;;;;;;5061885;28;20021;-82
2022/05/17 10:05:26;;;;;;;7.68;2.05;;;45.40;99.90;;;;;;5040032;28;20360;-82
2022/05/17 10:07:56;;;;;;;9.10;2.22;;;43.70;99.90;;;;;;5043903;28;20017;-82
2022/05/17 10:10:27;;;;;;;6.93;2.00;;;43.50;99.90;;;;;;5055029;28;20025;-82
2022/05/17 10:12:56;;;;;;;6.25;1.63;;;44.90;99.90;;;;;;5056348;28;20017;-82
2022/05/17 10:15:24;;;;;;;7.93;2.00;;;44.60;99.90;;;;;;5053910;28;20025;-83
2022/05/17 10:17:56;;;;;;;5.28;1.70;;;43.90;99.90;;;;;;5068487;28;20029;-82
2022/05/17 10:20:29;;;;;;;4.22;1.40;;;44.70;99.90;;;;;;5059813;28;20106;-82
2022/05/17 10:23:36;;;;;;;4.03;1.50;;;44.40;99.90;;;;;;5054228;28;20520;-82
2022/05/17 10:26:17;;;;;;;4.45;1.17;;;44.50;99.90;;;;;;5014126;28;20064;-82
2022/05/17 10:28:52;;;;;;;7.18;1.48;;;43.30;99.90;;;;;;5026509;28;20057;-81
2022/05/17 10:31:37;;;;;;;3.85;1.42;;;44.60;99.90;;;;;;5023820;28;20053;-82
2022/05/17 10:34:08;;;;;;;4.30;1.40;;;43.10;99.90;;;;;;5019460;28;20022;-82
2022/05/17 10:36:40;;;;;;;5.03;1.50;;;42.70;99.90;;;;;;5017473;28;20022;-82
2022/05/17 10:39:31;;;;;;;6.47;1.10;;;43.00;99.90;;;;;;5020839;28;20025;-82
2022/05/17 10:41:57;;;;;;;4.13;1.00;;;42.80;99.90;;;;;;5019324;28;20030;-81
2022/05/17 10:44:37;;;;;;;4.75;1.23;;;42.30;99.90;;;;;;5013497;28;20034;-82
2022/05/17 10:47:13;;;;;;;5.45;1.20;;;42.50;99.90;;;;;;5012407;28;20102;-82
2022/05/17 10:49:58;;;;;;;4.93;1.40;;;41.20;99.90;;;;;;5011600;28;20479;-82
2022/05/17 10:52:43;;;;;;;4.70;1.25;;;41.00;99.90;;;;;;5010642;28;20037;-81
2022/05/17 10:55:20;;;;;;;3.47;1.50;;;40.60;99.90;;;;;;5017418;28;20029;-81
2022/05/17 10:58:33;;;;;;;3.22;1.10;;;39.90;99.90;;;;;;5020204;28;20056;-81
2022/05/17 11:01:40;;;;;;;6.40;1.52;;;38.70;99.90;;;;;;4980620;28;20098;-82
2022/05/17 11:04:33;;;;;;;11.25;1.75;;;37.70;99.90;;;;;;5016420;28;20037;-82
2022/05/17 11:07:17;;;;;;;5.38;1.30;;;37.30;99.90;;;;;;5020758;28;20022;-81
2022/05/17 11:09:50;;;;;;;5.45;1.60;;;35.10;99.90;;;;;;5023411;28;20041;-81
2022/05/17 11:12:19;;;;;;;6.05;1.30;;;33.60;99.90;;;;;;5012277;28;20125;-81
2022/05/17 11:14:53;;;;;;;6.47;1.73;;;32.20;99.90;;;;;;4995178;28;20061;-82
2022/05/17 11:17:22;;;;;;;4.47;1.60;;;32.10;99.90;;;;;;4996840;28;20058;-81
2022/05/17 11:20:04;;;;;;;7.90;1.70;;;32.10;99.90;;;;;;4998648;28;20387;-81
2022/05/17 11:22:35;;;;;;;8.00;1.88;;;30.80;99.90;;;;;;5004342;28;20049;-82
2022/05/17 11:25:16;;;;;;;5.68;1.60;;;31.20;99.90;;;;;;5004383;28;20437;-82
2022/05/17 11:27:45;;;;;;;6.40;1.45;;;30.90;99.90;;;;;;5039209;28;20021;-82
2022/05/17 11:30:35;;;;;;;4.13;1.20;;;30.20;99.90;;;;;;5048011;28;20085;-82
2022/05/17 11:33:32;;;;;;;4.65;1.50;;;31.00;99.90;;;;;;5066381;28;20036;-82
2022/05/17 11:36:23;;;;;;;8.05;1.92;;;31.10;99.90;;;;;;5045392;28;20033;-82
2022/05/17 11:38:51;;;;;;;6.10;1.23;;;30.60;99.90;;;;;;5049603;28;20087;-82
2022/05/17 11:41:37;;;;;;;7.30;1.77;;;31.20;99.90;;;;;;5064833;28;20021;-82
2022/05/17 11:44:02;;;;;;;7.13;1.50;;;31.50;99.90;;;;;;5056830;28;20049;-81
2022/05/17 11:46:28;;;;;;;4.75;1.27;;;31.50;99.90;;;;;;5059128;28;20043;-82
2022/05/17 11:49:12;;;;;;;3.10;1.20;;;30.50;99.90;;;;;;5051179;28;20497;-82
2022/05/17 11:51:57;;;;;;;6.35;1.60;;;30.50;99.90;;;;;;5051966;28;20024;-81
2022/05/17 11:54:44;;;;;;;8.18;1.88;;;29.80;99.90;;;;;;5035352;28;20290;-81
2022/05/17 11:57:30;;;;;;;6.93;1.58;;;29.50;99.90;;;;;;5061033;28;20047;-81
2022/05/17 11:59:58;;;;;;;5.53;1.10;;;29.80;99.90;;;;;;5056554;28;20064;-82
2022/05/17 12:02:44;;;;;;;6.38;1.48;;;29.80;99.90;;;;;;5050223;28;20025;-81
2022/05/17 12:05:12;;;;;;;3.25;0.85;;;30.00;99.90;;;;;;5046236;28;20048;-81
2022/05/17 12:07:38;;;;;;;2.20;0.80;;;30.20;99.90;;;;;;5056153;28;20108;-81
2022/05/17 12:10:11;;;;;;;4.78;1.10;;;29.50;99.90;;;;;;5063428;28;20124;-81
2022/05/17 12:13:12;;;;;;;2.92;1.00;;;29.60;99.90;;;;;;5059251;28;20120;-82
2022/05/17 12:15:50;;;;;;;2.70;0.98;;;29.20;99.90;;;;;;5039360;28;20029;-82
2022/05/17 12:18:22;;;;;;;3.90;1.00;;;29.70;99.90;;;;;;5041912;28;20444;-82
2022/05/17 12:21:11;;;;;;;3.72;0.80;;;29.90;99.90;;;;;;5048635;28;20312;-82
2022/05/17 12:23:45;;;;;;;;;;;30.20;99.90;;;;;;5061565;28;20049;-82
2022/05/17 12:26:35;;;;;;;3.60;0.93;;;29.30;99.90;;;;;;5058479;28;19923;-82
2022/05/17 12:30:53;;;;;;;3.90;1.00;;;29.70;99.90;;;;;;5057757;28;20039;-82
2022/05/17 12:31:57;;;;;;;4.00;0.93;;;29.60;99.90;;;;;;5037334;28;20029;-82
2022/05/17 12:34:23;;;;;;;3.28;0.70;;;28.70;99.90;;;;;;5036285;28;20064;-82
2022/05/17 12:36:49;;;;;;;3.17;0.93;;;29.40;99.90;;;;;;5036445;28;20033;-82
2022/05/17 12:44:56;;;;;;;4.40;1.20;;;29.40;99.90;;;;;;5039957;28;20333;-82
2022/05/17 12:47:51;;;;;;;3.00;0.98;;;29.20;99.90;;;;;;5058153;28;20021;-82
2022/05/17 12:50:21;;;;;;;3.17;0.70;;;29.50;99.90;;;;;;5059069;28;20094;-82
2022/05/17 12:52:51;;;;;;;3.90;1.30;;;29.40;99.90;;;;;;5061728;28;20021;-83
2022/05/17 12:55:26;;;;;;;4.82;0.95;;;29.40;99.90;;;;;;5051988;28;20037;-83
2022/05/17 12:57:53;;;;;;;3.58;1.00;;;29.60;99.90;;;;;;5059610;28;20040;-83
2022/05/17 13:00:31;;;;;;;2.22;0.90;;;29.60;99.90;;;;;;5058273;28;20013;-84
2022/05/17 13:03:21;;;;;;;3.08;0.93;;;29.50;99.90;;;;;;5060815;28;20079;-84
2022/05/17 13:05:51;;;;;;;6.70;1.27;;;29.50;99.90;;;;;;5060589;28;20025;-83
2022/05/17 13:08:23;;;;;;;2.33;0.90;;;29.20;99.90;;;;;;5059888;28;20242;-84
2022/05/17 13:11:08;;;;;;;5.05;1.40;;;28.80;99.90;;;;;;5058361;28;20570;-84
2022/05/17 13:13:37;;;;;;;3.95;1.60;;;28.70;99.90;;;;;;5064985;28;20033;-84
2022/05/17 13:16:09;;;;;;;3.73;1.17;;;28.80;99.90;;;;;;5066172;28;20044;-84
2022/05/17 13:18:45;;;;;;;2.92;0.95;;;28.50;99.90;;;;;;5064068;28;20032;-84